• Join FlightAware (Why Join?)
  • Login
  • US Flag 
12:50AM EST


 

Airport Tracker/Info


-or-


 

Live Flight TrackerFlight Track Log ✈ AFL150 ✈ 02-Dec-2013 ✈ UUEE / SVO - MUHA / HAV

Flight Track Log - Related Links

Times and Time Zones

All times are in EST time to prevent confusion due to time zone crossing. See the AFL150 flight status page for this flight to view local times or setup timezone preferences in your user account.

Time Position Orientation Groundspeed Altitude Reporting Facility
EST Latitude Longitude Course Direction KTS MPH feet Rate Location/Type
04:44AM 56.0959 37.1392 307° West  Level Estimated
04:45AM 56.1633 36.9758 307° West  Level Estimated
04:46AM 56.2305 36.8119 306° West  Level Estimated
04:47AM 56.2976 36.6473 306° West  Level Estimated
04:48AM 56.3643 36.4822 306° West  Level Estimated
04:49AM 56.4309 36.3165 306° West  Level Estimated
04:50AM 56.4973 36.1502 306° West  Level Estimated
04:51AM 56.5634 35.9834 306° West  Level Estimated
04:52AM 56.6293 35.8159 306° West  Level Estimated
04:53AM 56.6950 35.6479 305° West  Level Estimated
04:54AM 56.7605 35.4793 305° West  Level Estimated
04:55AM 56.8257 35.3101 305° West  Level Estimated
04:56AM 56.8907 35.1403 305° West  Level Estimated
04:57AM 56.9555 34.9699 305° West  Level Estimated
04:58AM 57.0200 34.7989 305° West  Level Estimated
04:59AM 57.0843 34.6273 305° West  Level Estimated
05:00AM 57.1483 34.4552 304° West  Level Estimated
05:01AM 57.2122 34.2824 304° West  Level Estimated
05:02AM 57.2758 34.1091 304° West  Level Estimated
05:03AM 57.3391 33.9351 304° West  Level Estimated
05:04AM 57.4022 33.7606 304° West  Level Estimated
05:05AM 57.4651 33.5854 304° West  Level Estimated
05:06AM 57.5269 33.4119 304° West  Level Estimated
05:07AM 57.5885 33.2379 303° West  Level Estimated
05:08AM 57.6498 33.0632 303° West  Level Estimated
05:09AM 57.7109 32.8880 303° West  Level Estimated
05:10AM 57.7718 32.7121 303° West  Level Estimated
05:11AM 57.8324 32.5357 303° West  Level Estimated
05:12AM 57.8927 32.3587 303° West  Level Estimated
05:13AM 57.9528 32.1811 303° West  Level Estimated
05:14AM 58.0127 32.0029 302° West  Level Estimated
05:15AM 58.0723 31.8241 302° West  Level Estimated
05:16AM 58.1317 31.6447 302° West  Level Estimated
05:17AM 58.1908 31.4647 302° West  Level Estimated
05:18AM 58.2496 31.2841 302° West  Level Estimated
05:19AM 58.3082 31.1029 302° West  Level Estimated
05:20AM 58.3666 30.9211 302° West  Level Estimated
05:21AM 58.4247 30.7387 301° West  Level Estimated
05:22AM 58.4825 30.5557 301° West  Level Estimated
05:23AM 58.5401 30.3721 301° West  Level Estimated
05:24AM 58.5974 30.1879 301° West  Level Estimated
05:25AM 58.6544 30.0031 301° West  Level Estimated
05:26AM 58.7112 29.8176 301° West  Level Estimated
05:27AM 58.7677 29.6316 300° West  Level Estimated
05:28AM 58.8239 29.4450 300° West  Level Estimated
05:29AM 58.8799 29.2578 300° West  Level Estimated
05:30AM 58.9356 29.0700 300° West  Level Estimated
05:31AM 58.9910 28.8815 300° West  Level Estimated
05:32AM 59.0461 28.6925 300° West  Level Estimated
05:33AM 59.1010 28.5028 299° West  Level Estimated
05:34AM 59.1556 28.3126 299° West  Level Estimated
05:35AM 59.2099 28.1217 299° West  Level Estimated
05:36AM 59.2639 27.9303 299° West  Level Estimated
05:37AM 59.3177 27.7382 299° West  Level Estimated
05:38AM 59.3712 27.5455 299° West  Level Estimated
05:39AM 59.4243 27.3522 298° West  Level Estimated
05:40AM 59.4772 27.1583 298° West  Level Estimated
05:41AM 59.5298 26.9638 298° West  Level Estimated
05:42AM 59.5822 26.7687 298° West  Level Estimated
05:43AM 59.6342 26.5730 298° West  Level Estimated
05:44AM 59.6859 26.3767 298° West  Level Estimated
05:45AM 59.7374 26.1798 297° West  Level Estimated
05:46AM 59.7885 25.9823 297° West  Level Estimated
05:47AM 59.8394 25.7841 297° West  Level Estimated
05:48AM 59.8899 25.5854 297° West  Level Estimated
05:49AM 59.9402 25.3860 297° West  Level Estimated
05:50AM 59.9901 25.1861 297° West  Level Estimated
05:51AM 60.0398 24.9855 296° West  Level Estimated
05:52AM 60.0891 24.7844 296° West  Level Estimated
05:53AM 60.1381 24.5826 296° West  Level Estimated
05:54AM 60.1869 24.3803 296° West  Level Estimated
05:55AM 60.2353 24.1773 296° West  Level Estimated
05:56AM 60.2834 23.9738 296° West  Level Estimated
05:57AM 60.3312 23.7696 295° West  Level Estimated
05:58AM 60.3787 23.5649 295° West  Level Estimated
05:59AM 60.4258 23.3596 295° West  Level Estimated
06:00AM 60.4727 23.1536 295° West  Level Estimated
06:01AM 60.5192 22.9471 295° West  Level Estimated
06:02AM 60.5654 22.7400 294° West  Level Estimated
06:03AM 60.6113 22.5323 294° West  Level Estimated
06:04AM 60.6569 22.3240 294° West  Level Estimated
06:05AM 60.7021 22.1151 294° West  Level Estimated
06:06AM 60.7471 21.9056 294° West  Level Estimated
06:07AM 60.7916 21.6956 294° West  Level Estimated
06:08AM 60.8359 21.4849 293° West  Level Estimated
06:09AM 60.8798 21.2737 293° West  Level Estimated
06:10AM 60.9234 21.0619 293° West  Level Estimated
06:11AM 60.9667 20.8495 293° West  Level Estimated
06:12AM 61.0096 20.6365 293° West  Level Estimated
06:13AM 61.0522 20.4230 292° West  Level Estimated
06:13AM 59.1046 19.8300 292° West 390 449 34,000  Level FlightAware ADS-B (YKMB / KRB)
06:13AM 59.1207 19.7258 287° West 390 449 34,000  Level FlightAware ADS-B (YKMB / KRB)
06:14AM 59.1408 19.5949 287° West 391 450 34,000  Level FlightAware ADS-B (YKMB / KRB)
06:14AM 59.1565 19.4915 287° West 390 449 34,000  Level FlightAware ADS-B (YKMB / KRB)
06:15AM 59.1767 19.3581 286° West 393 452 34,000  Level FlightAware ADS-B (YKMB / KRB)
06:15AM 59.1920 19.2560 286° West 392 451 34,000  Level FlightAware ADS-B (YKMB / KRB)
06:16AM 59.2068 19.1565 286° West 393 452 34,000  Level FlightAware ADS-B (YKMB / KRB)
06:16AM 59.2225 19.0508 286° West 394 453 34,000  Level FlightAware ADS-B (YKMB / KRB)
06:17AM 59.2423 18.9162 286° West 395 455 34,000  Level FlightAware ADS-B (YKMB / KRB)
06:18AM 59.2576 18.8113 286° West 395 455 34,000  Level FlightAware ADS-B (YKMB / KRB)
06:18AM 59.2724 18.7099 286° West 396 456 34,000  Level FlightAware ADS-B (YKMB / KRB)
06:19AM 59.2873 18.6069 286° West 396 456 34,000  Level FlightAware ADS-B (YKMB / KRB)
06:19AM 59.3021 18.5030 286° West 396 456 34,000  Level FlightAware ADS-B (YKMB / KRB)
06:20AM 59.3214 18.3680 286° West 396 456 34,000  Level FlightAware ADS-B (YKMB / KRB)
06:20AM 59.3360 18.2645 286° West 398 458 34,000  Level FlightAware ADS-B (YKMB / KRB)
06:21AM 59.3560 18.1219 285° West 400 460 34,000  Level FlightAware ADS-B (YKMB / KRB)
06:22AM 59.3763 17.9759 285° West 402 463 34,000  Level FlightAware ADS-B (YKMB / KRB)
06:22AM 59.3953 17.8375 285° West 402 463 34,000  Level FlightAware ADS-B (YKMB / KRB)
06:23AM 59.4097 17.7315 285° West 402 463 34,000  Level FlightAware ADS-B (YKMB / KRB)
06:23AM 59.4240 17.6266 285° West 403 464 34,000  Level FlightAware ADS-B (YKMB / KRB)
06:24AM 59.4388 17.5163 285° West 404 465 34,000  Level FlightAware ADS-B (YKMB / KRB)
06:24AM 59.4562 17.3862 285° West 405 466 34,000  Level FlightAware ADS-B (YKMB / KRB)
06:25AM 59.4715 17.2702 285° West 406 467 34,000  Level FlightAware ADS-B (YKMB / KRB)
06:25AM 59.4860 17.1603 285° West 405 466 34,000  Level FlightAware ADS-B (YKMB / KRB)
06:26AM 59.5002 17.0518 284° West 405 466 34,000  Level FlightAware ADS-B (YKMB / KRB)
06:26AM 59.5141 16.9444 284° West 404 465 34,000  Level FlightAware ADS-B (YKMB / KRB)
06:27AM 59.5323 16.8036 284° West 402 463 34,000  Level FlightAware ADS-B (YKMB / KRB)
06:28AM 59.5459 16.6969 284° West 403 464 34,000  Level FlightAware ADS-B (YKMB / KRB)
06:28AM 59.5637 16.5569 284° West 403 464 34,000  Level FlightAware ADS-B (YKMB / KRB)
06:29AM 59.5773 16.4485 284° West 403 464 34,000  Level FlightAware ADS-B (YKMB / KRB)
06:29AM 59.5945 16.3096 284° West 400 460 34,000 240 Level FlightAware ADS-B (YKMB / KRB)
06:30AM 59.6080 16.2007 284° West 399 459 34,300 720 Climbing FlightAware ADS-B (YKMB / KRB)
06:31AM 59.6251 16.0600 284° West 395 455 34,900 900 Climbing FlightAware ADS-B (YKMB / KRB)
06:31AM 59.6379 15.9546 284° West 393 452 35,400 900 Climbing FlightAware ADS-B (YKMB / KRB)
06:32AM 59.6546 15.8155 283° West 392 451 36,000 480 Climbing FlightAware ADS-B (YKMB / KRB)
06:32AM 59.6668 15.7141 283° West 398 458 36,000  Level FlightAware ADS-B (YKMB / KRB)
06:33AM 59.6839 15.5687 283° West 399 459 36,000  Level FlightAware ADS-B (YKMB / KRB)
06:35AM 59.7424 15.2217 289° West  Level Estimated
06:36AM 59.7775 15.0107 288° West  Level Estimated
06:37AM 59.8121 14.7994 288° West  Level Estimated
06:38AM 59.8465 14.5876 288° West  Level Estimated
06:39AM 59.8805 14.3753 288° West  Level Estimated
06:40AM 59.9141 14.1627 288° West  Level Estimated
06:41AM 59.9474 13.9496 287° West  Level Estimated
06:42AM 59.9804 13.7360 287° West  Level Estimated
06:43AM 60.0130 13.5221 287° West  Level Estimated
06:44AM 60.0453 13.3077 287° West  Level Estimated
06:45AM 60.0772 13.0929 287° West  Level Estimated
06:46AM 60.1088 12.8777 286° West  Level Estimated
06:47AM 60.1400 12.6621 286° West  Level Estimated
06:48AM 60.1709 12.4461 286° West  Level Estimated
06:49AM 60.2015 12.2297 286° West  Level Estimated
06:50AM 60.2316 12.0128 286° West  Level Estimated
06:51AM 60.2615 11.7956 286° West  Level Estimated
06:52AM 60.2909 11.5780 285° West  Level Estimated
06:53AM 60.3200 11.3600 285° West  Level Estimated
06:54AM 60.3488 11.1416 285° West  Level Estimated
06:55AM 60.3772 10.9228 285° West  Level Estimated
06:56AM 60.4052 10.7037 285° West  Level Estimated
06:57AM 60.4329 10.4841 284° West  Level Estimated
06:58AM 60.4602 10.2642 284° West  Level Estimated
06:59AM 60.4871 10.0440 284° West  Level Estimated
07:00AM 60.5137 9.8233 284° West  Level Estimated
07:01AM 60.5399 9.6023 284° West  Level Estimated
07:02AM 60.5658 9.3810 283° West  Level Estimated
07:03AM 60.5913 9.1593 283° West  Level Estimated
07:04AM 60.6164 8.9372 283° West  Level Estimated
07:05AM 60.6411 8.7148 283° West  Level Estimated
07:06AM 60.6655 8.4921 283° West  Level Estimated
07:07AM 60.6895 8.2690 282° West  Level Estimated
07:08AM 60.7132 8.0456 282° West  Level Estimated
07:09AM 60.7364 7.8219 282° West  Level Estimated
07:10AM 60.7593 7.5978 282° West  Level Estimated
07:11AM 60.7818 7.3735 282° West  Level Estimated
07:12AM 60.8040 7.1488 282° West  Level Estimated
07:12AM 60.6618 7.5698 282° West 380 437 36,000  Level FlightAware ADS-B (EGBP)
07:12AM 60.6725 7.4647 282° West 379 436 36,000  Level FlightAware ADS-B (EGBP)
07:13AM 60.6829 7.3615 282° West 380 437 36,000  Level FlightAware ADS-B (EGBP)
07:13AM 60.6966 7.2260 282° West 379 436 36,000  Level FlightAware ADS-B (EGBP)
07:14AM 60.7104 7.0871 282° West 378 435 36,000  Level FlightAware ADS-B (EGBP)
07:15AM 60.7214 6.9757 281° West 380 437 36,000  Level FlightAware ADS-B (EGBP)
07:15AM 60.7346 6.8396 281° West 379 436 36,000  Level FlightAware ADS-B (EGBP)
07:16AM 60.7486 6.6946 281° West 378 435 36,000  Level FlightAware ADS-B (EGBP)
07:17AM 60.7615 6.5595 281° West 376 433 36,000  Level FlightAware ADS-B (EGBP)
07:17AM 60.7744 6.4227 281° West 375 432 36,000  Level FlightAware ADS-B (EGBP)
07:18AM 60.7877 6.2793 281° West 374 430 36,000  Level FlightAware ADS-B (EGBP)
07:18AM 60.7974 6.1736 281° West 376 433 36,000  Level FlightAware ADS-B (EGBP)
07:19AM 60.8071 6.0676 281° West 378 435 36,000  Level FlightAware ADS-B (EGBP)
07:20AM 60.8196 5.9291 281° West 377 434 36,000  Level FlightAware ADS-B (EGBP)
07:20AM 60.8285 5.8292 280° West 374 430 36,000  Level FlightAware ADS-B (EGBP)
07:21AM 60.8383 5.7191 280° West 372 428 36,000  Level FlightAware ADS-B (EGBP)
07:21AM 60.8499 5.5858 280° West 373 429 36,000  Level FlightAware ADS-B (EGBP)
07:24AM 60.8923 5.0801 280° West  Level Estimated
07:25AM 60.9107 4.8532 280° West  Level Estimated
07:26AM 60.9287 4.6261 279° West  Level Estimated
07:27AM 60.9463 4.3987 279° West  Level Estimated
07:28AM 60.9635 4.1710 279° West  Level Estimated
07:29AM 60.9804 3.9432 279° West  Level Estimated
07:30AM 60.9968 3.7150 279° West  Level Estimated
07:31AM 61.0129 3.4867 278° West  Level Estimated
07:32AM 61.0285 3.2581 278° West  Level Estimated
07:33AM 61.0438 3.0293 278° West  Level Estimated
07:34AM 61.0588 2.8003 278° West  Level Estimated
07:35AM 61.0733 2.5711 278° West  Level Estimated
07:36AM 61.0874 2.3416 277° West  Level Estimated
07:37AM 61.1011 2.1120 277° West  Level Estimated
07:38AM 61.1145 1.8821 277° West  Level Estimated
07:39AM 61.1274 1.6521 277° West  Level Estimated
07:40AM 61.1400 1.4219 277° West  Level Estimated
07:41AM 61.1522 1.1915 276° West  Level Estimated
07:42AM 61.1640 0.9609 276° West  Level Estimated
07:43AM 61.1754 0.7302 276° West  Level Estimated
07:44AM 61.1864 0.4993 276° West  Level Estimated
07:45AM 61.1970 0.2682 276° West  Level Estimated
07:46AM 61.2072 0.0370 275° West  Level Estimated
07:47AM 61.2170 -0.1944 275° West  Level Estimated
07:48AM 61.2264 -0.4259 275° West  Level Estimated
07:49AM 61.2355 -0.6575 275° West  Level Estimated
07:50AM 61.2441 -0.8893 275° West  Level Estimated
07:51AM 61.2523 -1.1212 274° West  Level Estimated
07:52AM 61.2602 -1.3532 274° West  Level Estimated
07:53AM 61.2676 -1.5854 274° West  Level Estimated
07:54AM 61.2747 -1.8176 274° West  Level Estimated
07:55AM 61.2813 -2.0499 274° West  Level Estimated
07:56AM 61.2876 -2.2824 273° West  Level Estimated
07:57AM 61.2934 -2.5149 273° West  Level Estimated
07:58AM 61.2989 -2.7475 273° West  Level Estimated
07:59AM 61.3040 -2.9802 273° West  Level Estimated
08:00AM 61.3086 -3.2129 272° West  Level Estimated
08:01AM 61.3129 -3.4458 272° West  Level Estimated
08:02AM 61.3168 -3.6786 272° West  Level Estimated
08:03AM 61.3202 -3.9116 272° West  Level Estimated
08:04AM 61.3233 -4.1446 272° West  Level Estimated
08:05AM 61.3260 -4.3776 271° West  Level Estimated
08:06AM 61.3283 -4.6107 271° West  Level Estimated
08:07AM 61.3301 -4.8438 271° West  Level Estimated
08:08AM 61.3316 -5.0769 271° West  Level Estimated
08:09AM 61.3327 -5.3100 271° West  Level Estimated
08:10AM 61.3333 -5.5432 270° West  Level Estimated
08:11AM 61.3336 -5.7763 270° West  Level Estimated
08:12AM 61.3335 -6.0095 270° West  Level Estimated
08:13AM 61.3330 -6.2427 270° West  Level Estimated
08:14AM 61.3321 -6.4758 270° West  Level Estimated
08:15AM 61.3307 -6.7089 269° West  Level Estimated
08:16AM 61.3290 -6.9420 269° West  Level Estimated
08:17AM 61.3269 -7.1751 269° West  Level Estimated
08:18AM 61.3244 -7.4082 269° West  Level Estimated
08:19AM 61.3215 -7.6412 269° West  Level Estimated
08:20AM 61.3181 -7.8741 268° West  Level Estimated
08:21AM 61.3144 -8.1070 268° West  Level Estimated
08:22AM 61.3103 -8.3399 268° West  Level Estimated
08:23AM 61.3058 -8.5727 268° West  Level Estimated
08:24AM 61.3009 -8.8054 268° West  Level Estimated
08:25AM 61.2956 -9.0380 267° West  Level Estimated
08:26AM 61.2899 -9.2706 267° West  Level Estimated
08:27AM 61.2838 -9.5030 267° West  Level Estimated
08:28AM 61.2773 -9.7354 267° West  Level Estimated
08:29AM 61.2704 -9.9677 267° West  Level Estimated
08:30AM 61.2631 -10.1998 266° West  Level Estimated
08:31AM 61.2554 -10.4319 266° West  Level Estimated
08:32AM 61.2473 -10.6638 266° West  Level Estimated
08:33AM 61.2388 -10.8957 266° West  Level Estimated
08:34AM 61.2299 -11.1273 266° West  Level Estimated
08:35AM 61.2207 -11.3589 265° West  Level Estimated
08:36AM 61.2110 -11.5903 265° West  Level Estimated
08:37AM 61.2009 -11.8216 265° West  Level Estimated
08:38AM 61.1905 -12.0527 265° West  Level Estimated
08:39AM 61.1796 -12.2837 265° West  Level Estimated
08:40AM 61.1684 -12.5145 264° West  Level Estimated
08:41AM 61.1567 -12.7451 264° West  Level Estimated
08:42AM 61.1447 -12.9756 264° West  Level Estimated
08:43AM 61.1323 -13.2059 264° West  Level Estimated
08:44AM 61.1195 -13.4360 264° West  Level Estimated
08:45AM 61.1063 -13.6659 263° West  Level Estimated
08:46AM 61.0927 -13.8956 263° West  Level Estimated
08:47AM 61.0787 -14.1251 263° West  Level Estimated
08:48AM 61.0643 -14.3545 263° West  Level Estimated
08:49AM 61.0496 -14.5836 263° West  Level Estimated
08:50AM 61.0344 -14.8125 262° West  Level Estimated
08:51AM 61.0189 -15.0411 262° West  Level Estimated
08:52AM 61.0030 -15.2696 262° West  Level Estimated
08:53AM 60.9867 -15.4978 262° West  Level Estimated
08:54AM 60.9700 -15.7257 262° West  Level Estimated
08:55AM 60.9529 -15.9535 261° West  Level Estimated
08:56AM 60.9355 -16.1810 261° West  Level Estimated
08:57AM 60.9176 -16.4082 261° West  Level Estimated
08:58AM 60.8994 -16.6352 261° West  Level Estimated
08:59AM 60.8808 -16.8619 261° West  Level Estimated
09:00AM 60.8618 -17.0883 260° West  Level Estimated
09:01AM 60.8424 -17.3145 260° West  Level Estimated
09:02AM 60.8227 -17.5404 260° West  Level Estimated
09:03AM 60.8026 -17.7660 260° West  Level Estimated
09:04AM 60.7821 -17.9913 260° West  Level Estimated
09:05AM 60.7612 -18.2164 259° West  Level Estimated
09:06AM 60.7400 -18.4411 259° West  Level Estimated
09:07AM 60.7183 -18.6655 259° West  Level Estimated
09:08AM 60.6963 -18.8897 259° West  Level Estimated
09:09AM 60.6740 -19.1135 259° West  Level Estimated
09:10AM 60.6512 -19.3370 258° West  Level Estimated
09:11AM 60.6281 -19.5602 258° West  Level Estimated
09:12AM 60.6046 -19.7831 258° West  Level Estimated
09:13AM 60.5807 -20.0056 258° West  Level Estimated
09:14AM 60.5565 -20.2278 258° West  Level Estimated
09:15AM 60.5319 -20.4497 257° West  Level Estimated
09:16AM 60.5069 -20.6713 257° West  Level Estimated
09:17AM 60.4816 -20.8925 257° West  Level Estimated
09:18AM 60.4559 -21.1133 257° West  Level Estimated
09:19AM 60.4298 -21.3338 257° West  Level Estimated
09:20AM 60.4034 -21.5540 256° West  Level Estimated
09:21AM 60.3766 -21.7737 256° West  Level Estimated
09:22AM 60.3494 -21.9932 256° West  Level Estimated
09:23AM 60.3219 -22.2122 256° West  Level Estimated
09:24AM 60.2941 -22.4309 256° West  Level Estimated
09:25AM 60.2658 -22.6492 255° West  Level Estimated
09:26AM 60.2373 -22.8671 255° West  Level Estimated
09:27AM 60.2083 -23.0847 255° West  Level Estimated
09:28AM 60.1790 -23.3018 255° West  Level Estimated
09:29AM 60.1493 -23.5186 255° West  Level Estimated
09:30AM 60.1193 -23.7350 255° West  Level Estimated
09:31AM 60.0890 -23.9510 254° West  Level Estimated
09:32AM 60.0583 -24.1665 254° West  Level Estimated
09:33AM 60.0272 -24.3817 254° West  Level Estimated
09:34AM 59.9958 -24.5965 254° West  Level Estimated
09:35AM 59.9640 -24.8109 254° West  Level Estimated
09:36AM 59.9319 -25.0248 253° West  Level Estimated
09:37AM 59.8995 -25.2383 253° West  Level Estimated
09:38AM 59.8667 -25.4514 253° West  Level Estimated
09:39AM 59.8335 -25.6641 253° West  Level Estimated
09:40AM 59.8000 -25.8764 253° West  Level Estimated
09:41AM 59.7662 -26.0882 252° West  Level Estimated
09:42AM 59.7321 -26.2997 252° West  Level Estimated
09:43AM 59.6976 -26.5106 252° West  Level Estimated
09:44AM 59.6627 -26.7212 252° West  Level Estimated
09:45AM 59.6275 -26.9313 252° West  Level Estimated
09:46AM 59.5920 -27.1409 252° West  Level Estimated
09:47AM 59.5562 -27.3501 251° West  Level Estimated
09:48AM 59.5200 -27.5589 251° West  Level Estimated
09:49AM 59.4835 -27.7672 251° West  Level Estimated
09:50AM 59.4466 -27.9751 251° West  Level Estimated
09:51AM 59.4095 -28.1825 251° West  Level Estimated
09:52AM 59.3720 -28.3894 250° West  Level Estimated
09:53AM 59.3341 -28.5959 250° West  Level Estimated
09:54AM 59.2960 -28.8019 250° West  Level Estimated
09:55AM 59.2575 -29.0075 250° West  Level Estimated
09:56AM 59.2187 -29.2126 250° West  Level Estimated
09:57AM 59.1796 -29.4172 250° West  Level Estimated
09:58AM 59.1401 -29.6214 249° West  Level Estimated
09:59AM 59.1004 -29.8251 249° West  Level Estimated
10:00AM 59.0603 -30.0283 249° West  Level Estimated
10:01AM 59.0199 -30.2311 249° West  Level Estimated
10:02AM 58.9792 -30.4333 249° West  Level Estimated
10:03AM 58.9381 -30.6351 249° West  Level Estimated
10:04AM 58.8968 -30.8364 248° West  Level Estimated
10:05AM 58.8551 -31.0372 248° West  Level Estimated
10:06AM 58.8132 -31.2376 248° West  Level Estimated
10:07AM 58.7709 -31.4374 248° West  Level Estimated
10:08AM 58.7283 -31.6368 248° West  Level Estimated
10:09AM 58.6854 -31.8357 248° West  Level Estimated
10:10AM 58.6422 -32.0340 247° West  Level Estimated
10:11AM 58.5987 -32.2319 247° West  Level Estimated
10:12AM 58.5549 -32.4293 247° West  Level Estimated
10:13AM 58.5108 -32.6262 247° West  Level Estimated
10:14AM 58.4664 -32.8227 247° West  Level Estimated
10:15AM 58.4217 -33.0186 247° West  Level Estimated
10:16AM 58.3767 -33.2140 246° West  Level Estimated
10:17AM 58.3314 -33.4089 246° West  Level Estimated
10:18AM 58.2858 -33.6033 246° West  Level Estimated
10:19AM 58.2399 -33.7972 246° West  Level Estimated
10:20AM 58.1937 -33.9906 246° West  Level Estimated
10:21AM 58.1472 -34.1835 246° West  Level Estimated
10:22AM 58.1005 -34.3759 245° Southwest  Level Estimated
10:23AM 58.0534 -34.5678 245° Southwest  Level Estimated
10:24AM 58.0061 -34.7592 245° Southwest  Level Estimated
10:25AM 57.9584 -34.9501 245° Southwest  Level Estimated
10:26AM 57.9105 -35.1404 245° Southwest  Level Estimated
10:27AM 57.8623 -35.3303 245° Southwest  Level Estimated
10:28AM 57.8138 -35.5197 244° Southwest  Level Estimated
10:28AM 65.0000 -40.0000 261° West 429 494 36,000  Level ETMS Enhanced Traffic Management System
10:29AM 57.7651 -35.7085 244° Southwest  Level Estimated
10:30AM 57.7160 -35.8968 244° Southwest  Level Estimated
10:31AM 57.6667 -36.0847 244° Southwest  Level Estimated
10:32AM 57.6171 -36.2720 244° Southwest  Level Estimated
10:33AM 57.5672 -36.4588 244° Southwest  Level Estimated
10:34AM 64.8845 -41.6682 260° West 429 494 36,000  Level FlightAware Transoceanic
10:35AM 64.8634 -41.9448 260° West 429 494 36,000  Level FlightAware Transoceanic
10:36AM 64.8419 -42.2209 259° West 429 494 36,000  Level FlightAware Transoceanic
10:37AM 64.8198 -42.4966 259° West 429 494 36,000  Level FlightAware Transoceanic
10:38AM 64.7972 -42.7719 259° West 429 494 36,000  Level FlightAware Transoceanic
10:39AM 64.7741 -43.0466 259° West 429 494 36,000  Level FlightAware Transoceanic
10:40AM 64.7505 -43.3209 258° West 429 494 36,000  Level FlightAware Transoceanic
10:41AM 64.7263 -43.5948 258° West 429 494 36,000  Level FlightAware Transoceanic
10:42AM 64.7017 -43.8681 258° West 429 494 36,000  Level FlightAware Transoceanic
10:43AM 64.6766 -44.1409 258° West 429 494 36,000  Level FlightAware Transoceanic
10:44AM 64.6510 -44.4132 257° West 429 494 36,000  Level FlightAware Transoceanic
10:45AM 64.6249 -44.6850 257° West 429 494 36,000  Level FlightAware Transoceanic
10:46AM 64.5983 -44.9563 257° West 429 494 36,000  Level FlightAware Transoceanic
10:47AM 64.5711 -45.2270 257° West 429 494 36,000  Level FlightAware Transoceanic
10:48AM 64.5435 -45.4972 256° West 429 494 36,000  Level FlightAware Transoceanic
10:49AM 64.5154 -45.7668 256° West 429 494 36,000  Level FlightAware Transoceanic
10:50AM 64.4868 -46.0359 256° West 429 494 36,000  Level FlightAware Transoceanic
10:51AM 64.4577 -46.3044 256° West 429 494 36,000  Level FlightAware Transoceanic
10:52AM 64.4281 -46.5724 256° West 429 494 36,000  Level FlightAware Transoceanic
10:53AM 64.3981 -46.8397 255° West 429 494 36,000  Level FlightAware Transoceanic
10:54AM 64.3675 -47.1065 255° West 429 494 36,000  Level FlightAware Transoceanic
10:55AM 64.3365 -47.3727 255° West 429 494 36,000  Level FlightAware Transoceanic
10:56AM 64.3050 -47.6382 255° West 429 494 36,000  Level FlightAware Transoceanic
10:57AM 64.2730 -47.9032 254° West 429 494 36,000  Level FlightAware Transoceanic
10:58AM 64.2405 -48.1675 254° West 429 494 36,000  Level FlightAware Transoceanic
10:59AM 64.2076 -48.4312 254° West 429 494 36,000  Level FlightAware Transoceanic
11:00AM 64.1742 -48.6943 254° West 429 494 36,000  Level FlightAware Transoceanic
11:01AM 64.1403 -48.9567 253° West 429 494 36,000  Level FlightAware Transoceanic
11:02AM 64.1059 -49.2185 253° West 429 494 36,000  Level FlightAware Transoceanic
11:03AM 64.0711 -49.4797 253° West 429 494 36,000  Level FlightAware Transoceanic
11:04AM 64.0358 -49.7402 253° West 429 494 36,000  Level FlightAware Transoceanic
11:05AM 63.9496 -49.9253 223° Southwest  Level Estimated
11:06AM 63.8633 -50.1092 223° Southwest  Level Estimated
11:06AM 64.0000 -50.0000 251° West 434 499 36,000  Level ETMS Enhanced Traffic Management System
11:07AM 63.7767 -50.2920 223° Southwest  Level Estimated
11:08AM 63.6899 -50.4738 223° Southwest  Level Estimated
11:09AM 63.6029 -50.6544 223° Southwest  Level Estimated
11:10AM 63.5156 -50.8339 223° Southwest  Level Estimated
11:11AM 63.4281 -51.0122 222° Southwest  Level Estimated
11:12AM 63.7097 -51.8030 249° West 434 499 36,000  Level FlightAware Transoceanic
11:13AM 63.6664 -52.0575 249° West 434 499 36,000  Level FlightAware Transoceanic
11:14AM 63.6227 -52.3112 249° West 434 499 36,000  Level FlightAware Transoceanic
11:15AM 63.5785 -52.5641 248° West 434 499 36,000  Level FlightAware Transoceanic
11:16AM 63.5338 -52.8163 248° West 434 499 36,000  Level FlightAware Transoceanic
11:17AM 63.4888 -53.0676 248° West 434 499 36,000  Level FlightAware Transoceanic
11:18AM 63.4432 -53.3182 248° West 434 499 36,000  Level FlightAware Transoceanic
11:19AM 63.3973 -53.5680 248° West 434 499 36,000  Level FlightAware Transoceanic
11:20AM 63.3509 -53.8169 247° West 434 499 36,000  Level FlightAware Transoceanic
11:21AM 63.3041 -54.0651 247° West 434 499 36,000  Level FlightAware Transoceanic
11:22AM 63.2569 -54.3124 247° West 434 499 36,000  Level FlightAware Transoceanic
11:23AM 63.2092 -54.5590 247° West 434 499 36,000  Level FlightAware Transoceanic
11:24AM 63.1611 -54.8047 246° West 434 499 36,000  Level FlightAware Transoceanic
11:25AM 63.1126 -55.0496 246° West 434 499 36,000  Level FlightAware Transoceanic
11:26AM 63.0636 -55.2937 246° West 434 499 36,000  Level FlightAware Transoceanic
11:27AM 63.0143 -55.5369 246° West 434 499 36,000  Level FlightAware Transoceanic
11:28AM 62.9645 -55.7794 246° West 434 499 36,000  Level FlightAware Transoceanic
11:29AM 62.9143 -56.0210 245° Southwest 434 499 36,000  Level FlightAware Transoceanic
11:30AM 62.8637 -56.2617 245° Southwest 434 499 36,000  Level FlightAware Transoceanic
11:31AM 62.8127 -56.5017 245° Southwest 434 499 36,000  Level FlightAware Transoceanic
11:32AM 62.7613 -56.7408 245° Southwest 434 499 36,000  Level FlightAware Transoceanic
11:33AM 62.7095 -56.9791 244° Southwest 434 499 36,000  Level FlightAware Transoceanic
11:34AM 62.6572 -57.2165 244° Southwest 434 499 36,000  Level FlightAware Transoceanic
11:35AM 62.6046 -57.4531 244° Southwest 434 499 36,000  Level FlightAware Transoceanic
11:36AM 62.5516 -57.6889 244° Southwest 434 499 36,000  Level FlightAware Transoceanic
11:37AM 62.4982 -57.9238 244° Southwest 434 499 36,000  Level FlightAware Transoceanic
11:38AM 62.4444 -58.1579 243° Southwest 434 499 36,000  Level FlightAware Transoceanic
11:39AM 62.3902 -58.3911 243° Southwest 434 499 36,000  Level FlightAware Transoceanic
11:40AM 62.3356 -58.6235 243° Southwest 434 499 36,000  Level FlightAware Transoceanic
11:41AM 62.2806 -58.8550 243° Southwest 434 499 36,000  Level FlightAware Transoceanic
11:42AM 62.2252 -59.0857 243° Southwest 434 499 36,000  Level FlightAware Transoceanic
11:42AM 62.2000 -59.1167 242° Southwest 380 437 36,000  Level Montreal Center
11:43AM 62.1695 -59.3156 242° Southwest 434 499 36,000  Level FlightAware Transoceanic
11:43AM 62.1667 -59.3667 254° West 440 506 36,000  Level Montreal Center
11:44AM 62.1134 -59.5446 242° Southwest 434 499 36,000  Level FlightAware Transoceanic
11:44AM 62.1000 -59.5833 237° Southwest 440 506 36,000  Level Montreal Center
11:45AM 62.0569 -59.7727 242° Southwest 434 499 36,000  Level FlightAware Transoceanic
11:45AM 62.0333 -59.8000 237° Southwest 430 495 36,000  Level Montreal Center
11:46AM 62.0006 -59.9976 242° Southwest  Level FlightAware Approximate
11:46AM 61.9667 -60.0167 237° Southwest 440 506 36,000  Level Montreal Center
11:47AM 61.9437 -60.2213 242° Southwest  Level FlightAware Approximate
11:47AM 61.8833 -60.1667 220° Southwest 440 506 36,000  Level Montreal Center
11:48AM 61.8000 -60.3667 229° Southwest 430 495 36,000  Level Montreal Center
11:49AM 61.6833 -60.5167 211° Southwest 430 495 36,000  Level Montreal Center
11:50AM 61.6000 -60.6667 221° Southwest 430 495 36,000  Level Montreal Center
11:51AM 61.5167 -60.8500 226° Southwest 420 483 36,000  Level Montreal Center
11:52AM 61.4167 -61.0000 216° Southwest 430 495 36,000  Level Montreal Center
11:53AM 61.3333 -61.1500 221° Southwest 430 495 36,000  Level Montreal Center
11:54AM 61.2500 -61.3333 227° Southwest 430 495 36,000  Level Montreal Center
11:55AM 61.1667 -61.4833 221° Southwest 420 483 36,000  Level Montreal Center
11:56AM 61.0667 -61.6667 222° Southwest 420 483 36,000  Level Montreal Center
11:57AM 60.9833 -61.8167 221° Southwest 430 495 36,000  Level Montreal Center
11:58AM 60.8833 -61.9500 213° Southwest 430 495 36,000  Level Montreal Center
11:59AM 60.8000 -62.1333 227° Southwest 430 495 36,000  Level Montreal Center
12:00PM 60.7000 -62.2833 216° Southwest 430 495 36,000  Level Montreal Center
12:01PM 60.6167 -62.4500 224° Southwest 430 495 36,000  Level Montreal Center
12:02PM 60.5667 -62.6500 243° Southwest 410 472 36,000  Level Montreal Center
12:03PM 60.5167 -62.8667 245° Southwest 420 483 36,000  Level Montreal Center
12:04PM 60.4667 -63.1000 247° West 420 483 36,000  Level Montreal Center
12:05PM 60.4500 -63.3167 261° West 410 472 36,000  Level Montreal Center
12:06PM 60.4000 -63.5500 247° West 410 472 36,000  Level Montreal Center
12:07PM 60.3667 -63.7667 253° West 420 483 36,000  Level Montreal Center
12:08PM 60.3167 -63.9833 245° Southwest 420 483 36,000  Level Montreal Center
12:09PM 60.2833 -64.2000 253° West 410 472 36,000  Level Montreal Center
12:10PM 60.2333 -64.4167 245° Southwest 420 483 36,000  Level Montreal Center
12:11PM 60.2000 -64.6333 253° West 410 472 36,000  Level Montreal Center
12:12PM 60.1500 -64.8333 243° Southwest 410 472 36,000  Level Montreal Center
12:13PM 60.1000 -65.0500 245° Southwest 420 483 36,000  Level Montreal Center
12:14PM 60.0333 -65.2333 234° Southwest 430 495 36,000  Level Montreal Center
12:15PM 59.9333 -65.3667 214° Southwest 430 495 36,000  Level Montreal Center
12:16PM 59.8333 -65.5667 225° Southwest 430 495 36,000  Level Montreal Center
12:17PM 59.7500 -65.7333 225° Southwest 430 495 36,000  Level Montreal Center
12:18PM 59.6500 -65.8667 214° Southwest 430 495 36,000  Level Montreal Center
12:19PM 59.5667 -66.0167 222° Southwest 430 495 36,000  Level Montreal Center
12:20PM 59.4833 -66.1833 225° Southwest 430 495 36,000  Level Montreal Center
12:21PM 59.3833 -66.3333 217° Southwest 430 495 36,000  Level Montreal Center
12:22PM 59.3000 -66.5000 226° Southwest 430 495 36,000  Level Montreal Center
12:23PM 59.2000 -66.6167 211° Southwest 430 495 36,000  Level Montreal Center
12:24PM 59.1333 -66.7667 229° Southwest 420 483 36,000  Level Montreal Center
12:25PM 59.0333 -66.9333 221° Southwest 420 483 36,000  Level Montreal Center
12:26PM 58.9500 -67.0833 223° Southwest 420 483 36,000  Level Montreal Center
12:27PM 58.8500 -67.2000 211° Southwest 420 483 36,000  Level Montreal Center
12:28PM 58.7667 -67.3500 223° Southwest 420 483 36,000  Level Montreal Center
12:29PM 58.6667 -67.5167 221° Southwest 420 483 36,000  Level Montreal Center
12:30PM 58.5833 -67.6667 223° Southwest 420 483 36,000  Level Montreal Center
12:31PM 58.4833 -67.8167 218° Southwest 420 483 36,000  Level Montreal Center
12:32PM 58.4000 -67.9333 216° Southwest 420 483 36,000  Level Montreal Center
12:33PM 58.3167 -68.0667 220° Southwest 410 472 36,000  Level Montreal Center
12:34PM 58.2167 -68.2167 218° Southwest 420 483 36,000  Level Montreal Center
12:35PM 58.1333 -68.3333 216° Southwest 430 495 36,000  Level Montreal Center
12:36PM 58.0833 -68.4167 221° Southwest 450 518 36,000  Level Montreal Center
12:37PM 57.9833 -68.5667 219° Southwest 420 483 36,000  Level Montreal Center
12:38PM 57.9000 -68.6667 213° Southwest 420 483 36,000  Level Montreal Center
12:39PM 57.8000 -68.8167 219° Southwest 410 472 36,000  Level Montreal Center
12:40PM 57.6833 -68.9333 208° Southwest 410 472 36,000  Level Montreal Center
12:41PM 57.6167 -69.0833 230° Southwest 410 472 36,000  Level Montreal Center
12:42PM 57.5167 -69.1833 208° Southwest 410 472 36,000  Level Montreal Center
12:43PM 57.4333 -69.3333 224° Southwest 410 472 36,000  Level Montreal Center
12:44PM 57.3333 -69.4500 212° Southwest 410 472 36,000  Level Montreal Center
12:45PM 57.2333 -69.5500 208° Southwest 410 472 36,000  Level Montreal Center
12:46PM 57.1333 -69.7000 219° Southwest 410 472 36,000  Level Montreal Center
12:47PM 57.0500 -69.8000 213° Southwest 410 472 36,000  Level Montreal Center
12:48PM 56.9500 -69.9333 216° Southwest 410 472 36,000  Level Montreal Center
12:49PM 56.8500 -70.0500 213° Southwest 410 472 36,000  Level Montreal Center
12:50PM 56.7667 -70.1833 221° Southwest 410 472 36,000  Level Montreal Center
12:51PM 56.6833 -70.2833 213° Southwest 410 472 36,000  Level Montreal Center
12:52PM 56.5833 -70.4000 213° Southwest 410 472 36,000  Level Montreal Center
12:53PM 56.4667 -70.5333 212° Southwest 410 472 36,000  Level Montreal Center
12:54PM 56.4000 -70.6667 228° Southwest 410 472 36,000  Level Montreal Center
12:55PM 56.3000 -70.7667 209° Southwest 410 472 36,000  Level Montreal Center
12:56PM 56.2000 -70.8833 213° Southwest 410 472 36,000  Level Montreal Center
12:57PM 56.1000 -70.9833 209° Southwest 410 472 36,000  Level Montreal Center
12:58PM 56.0000 -71.1167 217° Southwest 410 472 36,000  Level Montreal Center
12:59PM 55.9167 -71.2167 214° Southwest 410 472 36,000  Level Montreal Center
01:00PM 55.8167 -71.3500 217° Southwest 410 472 36,000  Level Montreal Center
01:01PM 55.7167 -71.4500 209° Southwest 410 472 36,000  Level Montreal Center
01:02PM 55.6167 -71.5833 217° Southwest 410 472 36,000  Level Montreal Center
01:03PM 55.5167 -71.6833 210° Southwest 410 472 36,000  Level Montreal Center
01:04PM 55.4167 -71.8000 214° Southwest 420 483 36,000  Level Montreal Center
01:05PM 55.3333 -71.9000 214° Southwest 420 483 36,000  Level Montreal Center
01:06PM 55.2333 -72.0333 217° Southwest 420 483 36,000  Level Montreal Center
01:07PM 55.1333 -72.1333 210° Southwest 420 483 36,000  Level Montreal Center
01:08PM 54.9833 -72.3500 220° Southwest 430 495 36,000  Level Gander Center
01:09PM 54.8833 -72.4667 214° Southwest 420 483 36,000  Level Gander Center
01:10PM 54.7667 -72.5833 210° Southwest 420 483 36,000  Level Gander Center
01:11PM 54.6833 -72.6667 210° Southwest 420 483 36,000  Level Gander Center
01:12PM 54.5667 -72.8167 217° Southwest 430 495 36,000  Level Gander Center
01:13PM 54.4667 -72.9000 206° Southwest 430 495 36,000  Level Gander Center
01:14PM 54.3667 -73.0167 214° Southwest 430 495 36,000  Level Gander Center
01:15PM 54.2667 -73.1333 214° Southwest 430 495 36,000  Level Gander Center
01:16PM 54.1667 -73.2500 214° Southwest 430 495 36,000  Level Gander Center
01:17PM 54.0667 -73.3500 210° Southwest 430 495 36,000  Level Gander Center
01:18PM 53.9667 -73.4500 210° Southwest 430 495 36,000  Level Gander Center
01:19PM 53.8667 -73.5667 215° Southwest 430 495 36,000  Level Gander Center
01:20PM 53.7667 -73.6833 215° Southwest 430 495 36,000  Level Gander Center
01:21PM 53.6667 -73.7667 206° Southwest 420 483 36,000  Level Gander Center
01:22PM 53.5667 -73.8500 206° Southwest 430 495 36,000  Level Gander Center
01:23PM 53.4500 -73.9667 211° Southwest 430 495 36,000  Level Gander Center
01:24PM 53.3500 -74.0333 202° Southwest 430 495 36,000  Level Gander Center
01:25PM 53.2500 -74.1333 211° Southwest 430 495 36,000  Level Gander Center
01:26PM 53.1333 -74.2333 207° Southwest 430 495 36,000  Level Gander Center
01:27PM 53.0333 -74.3167 207° Southwest 430 495 36,000  Level Gander Center
01:28PM 52.9167 -74.3833 199° South 430 495 36,000  Level Gander Center
01:29PM 52.8000 -74.5000 211° Southwest 430 495 36,000  Level Gander Center
01:30PM 52.7000 -74.5833 207° Southwest 440 506 36,000  Level Gander Center
01:31PM 52.6000 -74.6500 202° Southwest 430 495 36,000  Level Gander Center
01:32PM 52.4833 -74.7333 204° Southwest 430 495 36,000  Level Gander Center
01:33PM 52.3667 -74.8333 208° Southwest 430 495 36,000  Level Gander Center
01:34PM 52.2833 -74.9167 211° Southwest 430 495 36,000  Level Gander Center
01:35PM 52.1667 -75.0000 204° Southwest 430 495 36,000  Level Gander Center
01:36PM 52.0500 -75.1000 208° Southwest 430 495 36,000  Level Gander Center
01:37PM 51.9500 -75.1833 207° Southwest 430 495 36,000  Level Gander Center
01:38PM 51.8333 -75.2500 199° South 430 495 36,000  Level Gander Center
01:39PM 51.7333 -75.3333 207° Southwest 430 495 36,000  Level Gander Center
01:41PM 51.5667 -75.4167 197° South 430 495 36,000  Level Montreal Center
01:42PM 51.4500 -75.5000 204° Southwest 430 495 36,000  Level Montreal Center
01:43PM 51.3500 -75.5833 208° Southwest 430 495 36,000  Level Montreal Center
01:44PM 51.2333 -75.6667 204° Southwest 430 495 36,000  Level Montreal Center
01:45PM 51.1333 -75.7500 208° Southwest 420 483 36,000  Level Montreal Center
01:46PM 51.0333 -75.8333 208° Southwest 420 483 36,000  Level Montreal Center
01:47PM 50.9167 -75.9167 204° Southwest 430 495 36,000  Level Montreal Center
01:48PM 50.8167 -76.0000 208° Southwest 430 495 36,000  Level Montreal Center
01:49PM 50.7000 -76.0667 200° South 430 495 36,000  Level Montreal Center
01:50PM 50.6000 -76.1500 208° Southwest 430 495 36,000  Level Montreal Center
01:51PM 50.4833 -76.2333 204° Southwest 420 483 36,000  Level Montreal Center
01:52PM 50.3833 -76.3167 208° Southwest 420 483 36,000  Level Montreal Center
01:53PM 50.2833 -76.3833 203° Southwest 420 483 36,000  Level Montreal Center
01:54PM 50.1667 -76.4667 205° Southwest 420 483 36,000  Level Montreal Center
01:55PM 50.0500 -76.5500 205° Southwest 420 483 36,000  Level Montreal Center
01:56PM 49.9500 -76.6167 203° Southwest 420 483 36,000  Level Montreal Center
01:57PM 49.8333 -76.7000 205° Southwest 420 483 36,000  Level Montreal Center
01:58PM 49.7333 -76.7667 203° Southwest 420 483 36,000  Level Montreal Center
01:59PM 49.6333 -76.8167 198° South 430 495 36,000  Level Montreal Center
02:00PM 49.5167 -76.9167 209° Southwest 410 472 36,000  Level Montreal Center
02:01PM 49.4167 -76.9667 198° South 440 506 36,000  Level Montreal Center
02:02PM 49.3000 -77.0667 209° Southwest 430 495 36,000  Level Montreal Center
02:03PM 49.2000 -77.1167 198° South 410 472 36,000  Level Montreal Center
02:04PM 49.0833 -77.2000 205° Southwest 430 495 36,000  Level Montreal Center
02:05PM 48.9833 -77.2667 204° Southwest 420 483 36,000  Level Montreal Center
02:06PM 48.8667 -77.3500 205° Southwest 420 483 36,000  Level Montreal Center
02:07PM 48.7667 -77.4167 204° Southwest 410 472 36,000  Level Montreal Center
02:08PM 48.6667 -77.5000 209° Southwest 420 483 36,000  Level Montreal Center
02:09PM 48.5500 -77.5667 201° Southwest 410 472 36,000  Level Montreal Center
02:10PM 48.4500 -77.6333 204° Southwest 410 472 36,000  Level Montreal Center
02:11PM 48.3500 -77.7167 209° Southwest 410 472 36,000  Level Montreal Center
02:12PM 48.2500 -77.7833 204° Southwest 410 472 36,000  Level Montreal Center
02:13PM 48.1333 -77.8500 201° Southwest 410 472 36,000  Level Montreal Center
02:14PM 48.0333 -77.9000 198° South 410 472 36,000  Level Montreal Center
02:15PM 47.9167 -77.9667 201° Southwest 410 472 36,000  Level Montreal Center
02:16PM 47.8167 -78.0500 209° Southwest 410 472 36,000  Level Montreal Center
02:17PM 47.7167 -78.0833 193° South 410 472 36,000  Level Montreal Center
02:18PM 47.6000 -78.1667 206° Southwest 410 472 36,000  Level Montreal Center
02:19PM 47.5000 -78.2000 193° South 410 472 36,000  Level Montreal Center
02:20PM 47.3833 -78.2667 201° Southwest 410 472 36,000  Level Montreal Center
02:21PM 47.2833 -78.3500 209° Southwest 410 472 36,000  Level Montreal Center
02:22PM 47.1833 -78.3833 193° South 410 472 36,000  Level Montreal Center
02:23PM 47.0500 -78.4500 199° South 410 472 36,000  Level Montreal Center
02:24PM 46.9500 -78.5167 204° Southwest 410 472 36,000  Level Montreal Center
02:25PM 46.8500 -78.6000 210° Southwest 410 472 36,000  Level Montreal Center
02:26PM 46.7500 -78.6333 193° South 420 483 36,000  Level Montreal Center
02:27PM 46.6333 -78.7000 201° Southwest 420 483 36,000  Level Montreal Center
02:28PM 46.5333 -78.7667 205° Southwest 420 483 36,000  Level Montreal Center
02:29PM 46.4167 -78.8167 196° South 420 483 36,000  Level Montreal Center
02:30PM 46.3167 -78.8833 205° Southwest 410 472 36,000  Level Montreal Center
02:31PM 46.2000 -78.9500 202° Southwest 420 483 36,000  Level Montreal Center
02:32PM 46.0833 -79.0167 202° Southwest 420 483 36,000  Level Montreal Center
02:33PM 45.9833 -79.0500 193° South 420 483 36,000  Level Montreal Center
02:34PM 45.8667 -79.1167 202° Southwest 420 483 36,000  Level Montreal Center
02:35PM 45.7667 -79.1833 205° Southwest 420 483 36,000  Level Montreal Center
02:36PM 45.6500 -79.2333 197° South 420 483 36,000  Level Montreal Center
02:37PM 45.5333 -79.3000 202° Southwest 430 495 36,000  Level Montreal Center
02:38PM 45.4167 -79.3500 197° South 430 495 36,000  Level Montreal Center
02:39PM 45.3167 -79.4167 205° Southwest 430 495 36,000  Level Montreal Center
02:40PM 45.2000 -79.4833 202° Southwest 430 495 36,000  Level Montreal Center
02:41PM 45.1000 -79.5333 199° South 430 495 36,000  Level Montreal Center
02:42PM 44.9667 -79.5667 190° South 430 495 36,000  Level Toronto Center
02:43PM 44.8500 -79.6333 202° Southwest 430 495 36,000  Level Toronto Center
02:44PM 44.7500 -79.6833 200° South 430 495 36,000  Level Toronto Center
02:45PM 44.6333 -79.7500 202° Southwest 440 506 36,000  Level Toronto Center
02:46PM 44.5167 -79.8167 202° Southwest 430 495 36,000  Level Toronto Center
02:47PM 44.4167 -79.9167 216° Southwest 430 495 36,000  Level Toronto Center
02:48PM 44.3167 -80.0000 211° Southwest 430 495 36,000  Level Toronto Center
02:54PM 43.7132 -80.5664 211° Southwest 430 495 36,000  Level FlightAware ADS-B
02:55PM 43.6539 -80.6181 212° Southwest 429 494 36,000  Level FlightAware ADS-B
02:56PM 43.5667 -80.6941 212° Southwest 428 493 36,000  Level FlightAware ADS-B
02:56PM 43.4838 -80.7659 212° Southwest 426 490 36,000  Level FlightAware ADS-B
02:57PM 43.4333 -80.8000 212° Southwest 420 483 36,000  Level Toronto Center
02:58PM 43.3000 -80.9000 209° Southwest 430 495 36,000  Level Toronto Center
02:59PM 43.2167 -80.9667 210° Southwest 430 495 36,000  Level Toronto Center
03:00PM 43.1167 -81.0500 211° Southwest 430 495 36,000  Level Toronto Center
03:02PM 42.9272 -81.2161 213° Southwest 429 494 36,000  Level Cleveland Center
03:03PM 42.8164 -81.2869 205° Southwest 434 499 36,000  Level Cleveland Center
03:04PM 42.7061 -81.3531 204° Southwest 432 497 36,000  Level Cleveland Center
03:05PM 42.5956 -81.4228 205° Southwest 433 498 36,000  Level Cleveland Center
03:06PM 42.4844 -81.4900 204° Southwest 434 499 36,000  Level Cleveland Center
03:07PM 42.3725 -81.5567 204° Southwest 436 502 36,000  Level Cleveland Center
03:08PM 42.2606 -81.6256 204° Southwest 437 503 36,000  Level Cleveland Center
03:09PM 42.1300 -81.7039 204° Southwest 437 503 36,000  Level Cleveland Center
03:10PM 42.0181 -81.7711 204° Southwest 438 504 36,000  Level Cleveland Center
03:11PM 41.9069 -81.8372 204° Southwest 435 501 36,000  Level Cleveland Center
03:12PM 41.7939 -81.9044 204° Southwest 441 507 36,000  Level Cleveland Center
03:13PM 41.6811 -81.9711 204° Southwest 441 507 36,000  Level Cleveland Center
03:14PM 41.5683 -82.0369 204° Southwest 441 507 36,000  Level Cleveland Center
03:15PM 41.4372 -82.1150 204° Southwest 442 509 36,000  Level Cleveland Center
03:16PM 41.3217 -82.1744 201° Southwest 445 512 36,000  Level Cleveland Center
03:17PM 41.1992 -82.2181 195° South 455 524 36,000  Level Cleveland Center
03:18PM 41.0758 -82.2625 195° South 457 526 36,000  Level Cleveland Center
03:19PM 40.9514 -82.3067 195° South 462 532 36,000  Level Cleveland Center
03:20PM 40.8467 -82.3433 195° South 461 531 36,000  Level Indianapolis Center
03:21PM 40.7011 -82.3953 195° South 462 532 36,000  Level Indianapolis Center
03:22PM 40.5767 -82.4406 195° South 460 529 36,000  Level Indianapolis Center
03:23PM 40.4511 -82.4842 195° South 462 532 36,000  Level Indianapolis Center
03:24PM 40.3264 -82.5264 194° South 460 529 36,000  Level Indianapolis Center
03:25PM 40.1917 -82.5736 195° South 459 528 36,000  Level Indianapolis Center
03:27PM 40.0614 -82.5939 187° South 471 542 36,000  Level Indianapolis Center
03:28PM 39.9292 -82.6028 183° South 473 544 36,000  Level Indianapolis Center
03:29PM 39.7969 -82.6131 183° South 473 544 36,000  Level Indianapolis Center
03:30PM 39.6644 -82.6208 183° South 475 547 36,000  Level Indianapolis Center
03:31PM 39.5314 -82.6311 183° South 477 549 36,000  Level Indianapolis Center
03:32PM 39.3708 -82.6422 183° South 478 550 36,000  Level Indianapolis Center
03:33PM 39.2364 -82.6503 183° South 482 555 36,000  Level Indianapolis Center
03:34PM 39.1125 -82.6581 183° South 474 545 36,000  Level Indianapolis Center
03:35PM 38.9775 -82.6664 183° South 483 556 36,000  Level Indianapolis Center
03:36PM 38.8431 -82.6756 183° South 484 557 36,000  Level Indianapolis Center
03:42PM 37.9984 -82.7310 183° South 488 562 36,000  Level FlightAware ADS-B
03:42PM 37.9220 -82.7359 183° South 488 562 36,000  Level FlightAware ADS-B
03:44PM 37.6502 -82.7801 187° South 472 543 36,000  Level FlightAware ADS-B
03:45PM 37.6129 -82.7976 200° South 469 540 36,000  Level FlightAware ADS-B
03:45PM 37.5515 -82.8340 205° Southwest 462 532 36,000  Level FlightAware ADS-B
03:46PM 37.4855 -82.8782 208° Southwest 462 532 36,000  Level FlightAware ADS-B
03:46PM 37.4281 -82.9161 208° Southwest 462 532 36,000  Level FlightAware ADS-B
03:47PM 37.3699 -82.9542 207° Southwest 462 532 36,000  Level FlightAware ADS-B
03:48PM 37.2961 -83.0026 208° Southwest 463 533 36,000  Level FlightAware ADS-B
03:48PM 37.2289 -83.0465 207° Southwest 464 534 36,000  Level FlightAware ADS-B
03:49PM 37.1715 -83.0840 208° Southwest 462 532 36,000  Level FlightAware ADS-B
03:49PM 37.1037 -83.1282 207° Southwest 460 529 36,000  Level FlightAware ADS-B
03:50PM 37.0453 -83.1662 207° Southwest 460 529 36,000  Level FlightAware ADS-B
03:50PM 36.9877 -83.2035 207° Southwest 459 528 36,000  Level FlightAware ADS-B
03:51PM 36.9287 -83.2419 207° Southwest 458 527 36,000  Level FlightAware ADS-B
03:51PM 36.8719 -83.2786 207° Southwest 456 525 36,000  Level FlightAware ADS-B
03:52PM 36.8124 -83.3171 207° Southwest 456 525 36,000  Level FlightAware ADS-B
03:52PM 36.7538 -83.3547 207° Southwest 458 527 36,000  Level FlightAware ADS-B
03:53PM 36.6969 -83.3914 207° Southwest 458 527 36,000  Level FlightAware ADS-B
03:53PM 36.6392 -83.4285 207° Southwest 457 526 36,000  Level FlightAware ADS-B
03:54PM 36.5803 -83.4661 207° Southwest 456 525 36,000  Level FlightAware ADS-B
03:54PM 36.5255 -83.5011 207° Southwest 454 522 36,000  Level FlightAware ADS-B
03:55PM 36.4665 -83.5389 207° Southwest 452 520 36,000  Level FlightAware ADS-B
03:55PM 36.4102 -83.5749 207° Southwest 451 519 36,000  Level FlightAware ADS-B
03:56PM 36.3528 -83.6116 207° Southwest 451 519 36,000  Level FlightAware ADS-B
03:56PM 36.2971 -83.6470 207° Southwest 450 518 36,000  Level FlightAware ADS-B
03:57PM 36.2382 -83.6843 207° Southwest 449 517 36,000  Level FlightAware ADS-B
03:57PM 36.1817 -83.7201 207° Southwest 450 518 36,000  Level FlightAware ADS-B
03:58PM 36.1255 -83.7558 207° Southwest 451 519 36,000  Level FlightAware ADS-B
03:59PM 36.0652 -83.7938 207° Southwest 452 520 36,000  Level FlightAware ADS-B
03:59PM 36.0085 -83.8295 207° Southwest 452 520 36,000  Level FlightAware ADS-B
03:59PM 35.9635 -83.8576 207° Southwest 454 522 36,000  Level FlightAware ADS-B
04:00PM 35.9079 -83.8846 201° Southwest 462 532 36,000  Level FlightAware ADS-B
04:00PM 35.8654 -83.9004 197° South 466 536 36,000  Level FlightAware ADS-B
04:01PM 35.8018 -83.9175 192° South 471 542 36,000  Level FlightAware ADS-B
04:01PM 35.7370 -83.9343 192° South 470 541 36,000  Level FlightAware ADS-B
04:02PM 35.6731 -83.9508 192° South 470 541 36,000  Level FlightAware ADS-B
04:02PM 35.5963 -83.9698 191° South 469 540 36,000  Level FlightAware ADS-B
04:03PM 35.5287 -83.9862 191° South 468 539 36,000  Level FlightAware ADS-B
04:04PM 35.4426 -84.0070 191° South 468 539 36,000  Level FlightAware ADS-B
04:04PM 35.3756 -84.0232 191° South 468 539 36,000  Level FlightAware ADS-B
04:05PM 35.2918 -84.0434 191° South 471 542 36,000  Level FlightAware ADS-B
04:05PM 35.2258 -84.0591 191° South 474 545 36,000  Level FlightAware ADS-B
04:06PM 35.1211 -84.0843 191° South 474 545 36,000  Level FlightAware ADS-B
04:07PM 35.0531 -84.1004 191° South 474 545 36,000  Level FlightAware ADS-B
04:07PM 34.9876 -84.1161 191° South 473 544 36,000  Level FlightAware ADS-B
04:08PM 34.8951 -84.1383 191° South 473 544 36,000  Level FlightAware ADS-B
04:08PM 34.8311 -84.1535 191° South 473 544 36,000  Level FlightAware ADS-B
04:09PM 34.7661 -84.1689 191° South 471 542 36,000  Level FlightAware ADS-B
04:10PM 34.6543 -84.1954 191° South 468 539 36,000  Level FlightAware ADS-B
04:10PM 34.5903 -84.2105 191° South 466 536 36,000  Level FlightAware ADS-B
04:11PM 34.5262 -84.2257 191° South 467 537 36,000  Level FlightAware ADS-B
04:11PM 34.4605 -84.2411 191° South 468 539 36,000  Level FlightAware ADS-B
04:12PM 34.3929 -84.2570 191° South 468 539 36,000  Level FlightAware ADS-B
04:13PM 34.2923 -84.2806 191° South 468 539 36,000  Level FlightAware ADS-B
04:13PM 34.2021 -84.3018 191° South 468 539 36,000  Level FlightAware ADS-B
04:14PM 34.1231 -84.3204 191° South 467 537 36,000  Level FlightAware ADS-B
04:14PM 34.0562 -84.3360 191° South 466 536 36,000  Level FlightAware ADS-B
04:15PM 33.9922 -84.3509 191° South 466 536 36,000  Level FlightAware ADS-B
04:15PM 33.9289 -84.3656 191° South 466 536 36,000  Level FlightAware ADS-B
04:16PM 33.8645 -84.3806 191° South 464 534 36,000  Level FlightAware ADS-B
04:16PM 33.8011 -84.3953 191° South 463 533 36,000  Level FlightAware ADS-B
04:17PM 33.7358 -84.4104 191° South 463 533 36,000  Level FlightAware ADS-B
04:17PM 33.6771 -84.4237 191° South 464 534 36,000  Level FlightAware ADS-B
04:18PM 33.6327 -84.4303 187° South 470 541 36,000  Level FlightAware ADS-B
04:18PM 33.5334 -84.4322 181° South 476 548 36,000  Level FlightAware ADS-B
04:19PM 33.4681 -84.4347 181° South 470 541 36,000  Level Atlanta Center
04:20PM 33.3344 -84.4342 180° South 470 541 36,000 300 Level Atlanta Center
04:21PM 33.1989 -84.4286 178° South 477 549 36,600 480 Climbing Atlanta Center
04:22PM 33.0631 -84.4256 179° South 482 555 37,000 180 Climbing Atlanta Center
04:23PM 32.9253 -84.4250 180° South 487 560 37,000  Level Atlanta Center
04:24PM 32.8125 -84.4219 179° South 502 578 37,000  Level Atlanta Center
04:25PM 32.6478 -84.4186 179° South 502 578 37,000  Level Atlanta Center
04:26PM 32.5100 -84.4156 179° South 497 572 37,000  Level Atlanta Center
04:28PM 32.2722 -84.4086 179° South 498 573 37,000  Level Jacksonville Center
04:29PM 32.1344 -84.4064 179° South 498 573 37,000  Level Jacksonville Center
04:35PM 31.3424 -84.3867 179° South 491 565 37,000  Level FlightAware ADS-B (KTLH)
04:36PM 31.1273 -84.2786 157° South 520 598 37,000  Level FlightAware ADS-B (KTLH)
04:37PM 31.0630 -84.2434 155° Southeast 520 598 37,000  Level FlightAware ADS-B (KTLH)
04:37PM 30.9942 -84.2071 156° South 518 596 37,000  Level FlightAware ADS-B
04:38PM 30.9251 -84.1709 156° South 520 598 37,000  Level FlightAware ADS-B
04:38PM 30.8474 -84.1299 156° South 523 602 37,000  Level FlightAware ADS-B
04:39PM 30.7740 -84.0912 156° South 522 601 37,000  Level FlightAware ADS-B
04:39PM 30.7073 -84.0561 156° South 522 601 37,000  Level FlightAware ADS-B (KTLH)
04:40PM 30.6403 -84.0209 156° South 522 601 37,000  Level FlightAware ADS-B (KTLH)
04:40PM 30.5759 -83.9870 156° South 513 590 37,000  Level FlightAware ADS-B
04:41PM 30.5038 -83.9492 156° South 500 575 37,000  Level FlightAware ADS-B
04:42PM 30.4088 -83.8997 156° South 498 573 37,000  Level FlightAware ADS-B
04:42PM 30.3529 -83.8706 156° South 496 571 37,000  Level FlightAware ADS-B (KTLH)
04:43PM 30.2865 -83.8360 156° South 494 568 37,000  Level FlightAware ADS-B (KTLH)
04:43PM 30.2190 -83.8009 156° South 492 566 37,000  Level FlightAware ADS-B
04:44PM 30.1167 -83.7477 156° South 491 565 37,000  Level FlightAware ADS-B (KTLH)
04:45PM 30.0239 -83.7011 156° South 496 571 37,000  Level Jacksonville Center
04:46PM 29.8969 -83.6353 156° South 496 571 37,000  Level Jacksonville Center
04:47PM 29.7719 -83.5722 156° South 496 571 37,000  Level Jacksonville Center
04:48PM 29.6575 -83.5139 156° South 503 579 37,000  Level Jacksonville Center
04:49PM 29.5306 -83.4486 156° South 503 579 37,000  Level Jacksonville Center
04:50PM 29.4033 -83.3814 155° Southeast 497 572 37,000  Level Jacksonville Center
04:51PM 29.2764 -83.3164 156° South 497 572 37,000  Level Jacksonville Center
04:52PM 29.1492 -83.2517 156° South 497 572 37,000  Level Jacksonville Center
04:53PM 29.0219 -83.1894 157° South 497 572 37,000  Level Jacksonville Center
04:54PM 28.8969 -83.1272 156° South 497 572 37,000  Level Jacksonville Center
04:55PM 28.7717 -83.0608 155° Southeast 497 572 37,000  Level Jacksonville Center
04:56PM 28.6444 -82.9992 157° South 497 572 37,000  Level Jacksonville Center
04:57PM 28.5047 -82.9303 157° South 497 572 37,000  Level Jacksonville Center
04:58PM 28.3794 -82.8667 156° South 497 572 37,000  Level Jacksonville Center
04:59PM 28.1975 -82.7758 156° South 509 586 37,000  Level Miami Center
05:00PM 28.0689 -82.7103 156° South 509 586 37,000  Level Miami Center
05:01PM 27.9400 -82.6472 157° South 509 586 37,000  Level Miami Center
05:02PM 27.8153 -82.5822 155° Southeast 509 586 37,000  Level Miami Center
05:03PM 27.6719 -82.5142 157° South 509 586 37,000  Level Miami Center
05:04PM 27.5428 -82.4514 157° South 509 586 37,000  Level Miami Center
05:05PM 27.4119 -82.3867 156° South 509 586 37,000  Level Miami Center
05:06PM 27.2950 -82.3297 157° South 509 586 37,000  Level Miami Center
05:07PM 27.1575 -82.2672 158° South 504 580 37,000  Level Miami Center
05:08PM 27.0283 -82.2658 179° South 456 525 37,000  Level Miami Center
05:09PM 26.9047 -82.2764 184° South 456 525 37,000  Level Miami Center
05:10PM 26.7792 -82.2869 184° South 456 525 37,000  Level Miami Center
05:11PM 26.6536 -82.2972 184° South 461 531 37,000  Level Miami Center
05:12PM 26.5258 -82.3075 184° South 461 531 37,000  Level Miami Center
05:13PM 26.3961 -82.3156 183° South 468 539 37,000  Level Miami Center
05:14PM 26.2703 -82.3306 186° South 468 539 37,000  Level Miami Center
05:15PM 26.1594 -82.3394 184° South 457 526 37,000  Level Miami Center
05:16PM 26.0317 -82.3497 184° South 457 526 37,000  Level Miami Center
05:17PM 25.8892 -82.3639 185° South 464 534 37,000  Level Miami Center
05:18PM 25.7633 -82.3742 184° South 469 540 37,000  Level Miami Center
05:19PM 25.6503 -82.3853 185° South 464 534 37,000  Level Miami Center
05:20PM 25.5225 -82.3956 184° South 464 534 37,000  Level Miami Center
05:21PM 25.3950 -82.4033 183° South 464 534 37,000  Level Miami Center
05:22PM 25.2672 -82.4158 185° South 464 534 37,000  Level Miami Center
05:23PM 25.1414 -82.4264 184° South 464 534 37,000  Level Miami Center
05:24PM 25.0094 -82.4364 184° South 464 534 37,000 -660 Level Miami Center
05:25PM 24.8819 -82.4467 184° South 464 534 35,700 -1,740 Descending Miami Center
05:26PM 24.7583 -82.4569 184° South 464 534 33,600 -2,100 Descending Miami Center
05:27PM 24.6347 -82.4675 184° South 458 527 31,600 -1,920 Descending Miami Center
05:28PM 24.5111 -82.4778 184° South 453 521 29,800 -1,800 Descending Miami Center
05:29PM 24.3939 -82.4883 185° South 443 510 28,100 -1,800 Descending Miami Center
05:30PM 24.2767 -82.4967 184° South 431 496 26,300 -1,740 Descending Miami Center
05:31PM 24.1614 -82.5053 184° South 422 486 24,600 -1,740 Descending Miami Center
05:32PM 24.0544 -82.5164 185° South 410 472 22,900 -1,860 Descending Miami Center
05:33PM 23.9519 -82.5278 186° South 396 456 20,900 -2,040 Descending Miami Center
05:35PM 23.8197 -82.4960 168° South  Level FlightAware Approximate
05:42PM 23.0011 -82.4000 180° South  Level FlightAware Approximate
05:43PM 22.9891 -82.4091 180° South  Level Estimated
05:44PM 22.9891 -82.4091 180° South  Level Estimated
05:45PM 22.9891 -82.4091 180° South  Level Estimated
05:46PM 22.9891 -82.4091 180° South  Level Estimated
05:47PM 22.9891 -82.4091 180° South  Level Estimated
05:48PM 22.9891 -82.4091 180° South  Level Estimated
05:49PM 22.9891 -82.4091 180° South  Level Estimated
05:50PM 22.9891 -82.4091 180° South  Level Estimated
05:51PM 22.9891 -82.4091 180° South  Level Estimated
05:52PM 22.9891 -82.4091 180° South  Level Estimated
05:53PM 22.9891 -82.4091 180° South  Level Estimated
05:54PM 22.9891 -82.4091 180° South  Level Estimated
05:55PM 22.9891 -82.4091 180° South  Level Estimated
05:56PM 22.9891 -82.4091 180° South  Level Estimated
05:57PM 22.9891 -82.4091 180° South  Level Estimated
05:58PM 22.9891 -82.4091 180° South  Level Estimated
05:59PM 22.9891 -82.4091 180° South  Level Estimated
06:00PM 22.9891 -82.4091 180° South  Level Estimated
06:01PM 22.9891 -82.4091 180° South  Level Estimated
06:02PM 22.9891 -82.4091 180° South  Level Estimated
06:03PM 22.9891 -82.4091 180° South  Level Estimated
06:04PM 22.9891 -82.4091 180° South  Level Estimated
06:05PM 22.9891 -82.4091 180° South  Level Estimated